Time;durP1;ratioP1;P1;durP2;ratioP2;P2;SDS_P1;SDS_P2;PMS_P1;PMS_P2;Temp;Humidity;BMP_temperature;BMP_pressure;BME280_temperature;BME280_humidity;BME280_pressure;Samples;Min_cycle;Max_cycle;Signal;HPM_P1;HPM_P2
2022/09/18 00:02:25;;;;;;;3.65;1.42;;;;;;;11.82;100.00;99458.34;5108691;28;20028;-70
2022/09/18 00:04:51;;;;;;;5.80;1.42;;;;;;;11.94;100.00;99470.47;5108892;28;20035;-70
2022/09/18 00:07:17;;;;;;;1.50;1.30;;;;;;;11.91;100.00;99473.47;5107481;28;20027;-70
2022/09/18 00:09:43;;;;;;;2.40;1.23;;;;;;;11.96;100.00;99463.91;5109807;27;20047;-70
2022/09/18 00:12:09;;;;;;;1.65;1.20;;;;;;;11.91;100.00;99473.47;5109038;27;20044;-70
2022/09/18 00:14:34;;;;;;;3.72;1.38;;;;;;;11.85;100.00;99461.53;5108826;28;20031;-69
2022/09/18 00:17:01;;;;;;;2.30;1.38;;;;;;;11.84;100.00;99480.50;5108705;28;20023;-70
2022/09/18 00:19:27;;;;;;;1.73;1.33;;;;;;;11.88;100.00;99479.19;5109188;28;20039;-70
2022/09/18 00:21:52;;;;;;;3.10;1.60;;;;;;;11.91;100.00;99482.38;5108151;27;20376;-70
2022/09/18 00:24:18;;;;;;;2.55;1.38;;;;;;;11.97;100.00;99486.25;5109252;27;20015;-67
2022/09/18 00:26:44;;;;;;;1.75;1.27;;;;;;;11.96;100.00;99482.72;5106823;28;20020;-67
2022/09/18 00:29:12;;;;;;;4.32;1.35;;;;;;;11.90;100.00;99480.69;5107980;28;20108;-67
2022/09/18 00:31:38;;;;;;;1.58;1.35;;;;;;;11.77;100.00;99488.38;5108166;28;20031;-66
2022/09/18 00:34:07;;;;;;;2.20;1.48;;;;;;;11.74;100.00;99490.56;5107487;27;20107;-66
2022/09/18 00:36:34;;;;;;;5.43;1.95;;;;;;;11.82;100.00;99487.88;5107076;28;20043;-67
2022/09/18 00:39:01;;;;;;;3.05;1.55;;;;;;;11.77;100.00;99498.28;5106155;28;20055;-66
2022/09/18 00:41:33;;;;;;;2.63;1.52;;;;;;;11.77;100.00;99487.53;5108118;28;20031;-66
2022/09/18 00:44:35;;;;;;;3.83;1.40;;;;;;;11.67;100.00;99487.66;5107739;28;20041;-66
2022/09/18 00:47:04;;;;;;;1.92;1.42;;;;;;;11.72;100.00;99495.22;5107273;28;20111;-66
2022/09/18 00:49:30;;;;;;;2.50;1.67;;;;;;;11.76;100.00;99493.91;5109198;27;20445;-64
2022/09/18 00:51:57;;;;;;;2.90;1.42;;;;;;;11.69;100.00;99488.34;5107514;28;20114;-65
2022/09/18 00:54:29;;;;;;;4.25;1.80;;;;;;;11.70;100.00;99491.88;5107092;28;20034;-66
2022/09/18 00:56:58;;;;;;;2.47;1.30;;;;;;;11.69;100.00;99498.25;5106788;28;20044;-66
2022/09/18 00:59:29;;;;;;;5.60;1.80;;;;;;;11.58;100.00;99486.75;5105604;28;20016;-66
2022/09/18 01:01:59;;;;;;;3.60;1.58;;;;;;;11.58;100.00;99499.38;5105902;28;20031;-69
2022/09/18 01:04:26;;;;;;;3.92;1.98;;;;;;;11.58;100.00;99508.25;5105120;28;20046;-66
2022/09/18 01:07:20;;;;;;;3.38;1.60;;;;;;;11.67;100.00;99505.63;5104632;28;20479;-65
2022/09/18 01:10:22;;;;;;;2.13;1.55;;;;;;;11.79;100.00;99504.31;5104120;28;20031;-65
2022/09/18 01:13:11;;;;;;;3.67;1.88;;;;;;;11.78;100.00;99513.41;5103853;28;20078;-66
2022/09/18 01:15:51;;;;;;;2.70;1.75;;;;;;;11.84;100.00;99502.84;5105375;28;20066;-66
2022/09/18 01:18:28;;;;;;;3.92;1.90;;;;;;;11.85;100.00;99509.06;5106757;28;20027;-66
2022/09/18 01:21:08;;;;;;;2.63;1.90;;;;;;;11.73;100.00;99510.38;5105808;28;20517;-66
2022/09/18 01:23:52;;;;;;;3.90;2.17;;;;;;;11.72;100.00;99509.53;5108074;27;20579;-65
2022/09/18 01:26:26;;;;;;;4.97;2.40;;;;;;;11.72;100.00;99508.66;5104328;28;20031;-65
2022/09/18 01:29:04;;;;;;;6.65;2.00;;;;;;;11.70;100.00;99508.00;5106348;28;20114;-65
2022/09/18 01:31:42;;;;;;;6.07;2.42;;;;;;;11.79;100.00;99498.94;5106442;28;20035;-66
2022/09/18 01:34:19;;;;;;;4.45;2.45;;;;;;;11.66;100.00;99501.25;5106446;28;20028;-65
2022/09/18 01:36:54;;;;;;;6.25;2.35;;;;;;;11.66;100.00;99498.56;5104944;28;20027;-66
2022/09/18 01:39:30;;;;;;;4.03;2.13;;;;;;;11.53;100.00;99493.63;5106732;27;20097;-69
2022/09/18 01:41:56;;;;;;;3.17;2.03;;;;;;;11.64;100.00;99520.22;5106207;28;20031;-69
2022/09/18 01:44:29;;;;;;;3.88;2.25;;;;;;;11.69;100.00;99512.53;5107802;28;20487;-70
2022/09/18 01:46:58;;;;;;;5.03;2.00;;;;;;;11.65;100.00;99505.81;5107569;28;20043;-70
2022/09/18 01:49:30;;;;;;;4.03;1.92;;;;;;;11.75;100.00;99524.47;5108091;27;20077;-70
2022/09/18 01:52:10;;;;;;;4.72;2.10;;;;;;;11.77;100.00;99519.78;5107612;28;20481;-71
2022/09/18 01:54:40;;;;;;;4.40;1.88;;;;;;;11.76;100.00;99521.63;5106106;28;20042;-66
2022/09/18 01:57:16;;;;;;;5.82;1.80;;;;;;;11.64;100.00;99520.22;5105542;28;20437;-66
2022/09/18 01:59:50;;;;;;;6.38;2.00;;;;;;;11.72;100.00;99516.72;5107889;27;20039;-66
2022/09/18 02:02:31;;;;;;;6.90;2.30;;;;;;;11.71;100.00;99520.41;5105835;28;20020;-66
2022/09/18 02:04:59;;;;;;;2.85;1.85;;;;;;;11.66;100.00;99520.03;5104541;28;20456;-65
2022/09/18 02:07:36;;;;;;;3.00;1.92;;;;;;;11.55;100.00;99505.06;5106068;28;20120;-65
2022/09/18 02:10:03;;;;;;;3.88;2.03;;;;;;;11.61;100.00;99527.72;5102754;28;20031;-65
2022/09/18 02:12:31;;;;;;;4.57;2.40;;;;;;;11.47;100.00;99532.69;5105607;28;20491;-65
2022/09/18 02:15:00;;;;;;;4.78;1.80;;;;;;;11.47;100.00;99545.28;5105014;28;20097;-66
2022/09/18 02:17:34;;;;;;;4.15;2.03;;;;;;;11.41;100.00;99540.53;5105889;28;20503;-66
2022/09/18 02:20:12;;;;;;;6.82;2.10;;;;;;;11.43;100.00;99539.41;5103236;28;20031;-66
2022/09/18 02:22:43;;;;;;;2.55;1.98;;;;;;;11.39;100.00;99556.78;5106910;27;20023;-65
2022/09/18 02:25:12;;;;;;;5.63;2.28;;;;;;;11.22;100.00;99546.09;5104223;28;20494;-64
2022/09/18 02:27:39;;;;;;;3.95;1.80;;;;;;;11.27;100.00;99554.53;5104592;28;20031;-66
2022/09/18 02:30:07;;;;;;;7.72;2.13;;;;;;;11.20;100.00;99562.41;5105287;28;20027;-65
2022/09/18 02:32:36;;;;;;;4.93;1.98;;;;;;;11.26;100.00;99555.56;5102513;28;20031;-66
2022/09/18 02:35:02;;;;;;;3.63;1.77;;;;;;;11.26;100.00;99559.06;5104660;27;20023;-65
2022/09/18 02:37:54;;;;;;;6.38;1.63;;;;;;;11.12;100.00;99553.41;5104763;28;20019;-65
2022/09/18 02:41:09;;;;;;;3.08;1.67;;;;;;;11.19;100.00;99568.75;5103258;28;20035;-65
2022/09/18 02:43:58;;;;;;;6.22;1.98;;;;;;;11.09;100.00;99570.69;5090863;28;20078;-66
2022/09/18 02:46:26;;;;;;;4.05;1.67;;;;;;;11.11;100.00;99571.38;5105216;27;20059;-64
2022/09/18 02:49:10;;;;;;;3.90;1.60;;;;;;;11.08;100.00;99579.75;5103292;28;20054;-65
2022/09/18 02:51:49;;;;;;;3.35;1.50;;;;;;;11.10;100.00;99580.41;5102391;28;20035;-66
2022/09/18 02:54:37;;;;;;;4.50;1.70;;;;;;;11.01;100.00;99594.78;5104604;28;20151;-65
2022/09/18 02:57:09;;;;;;;7.78;2.05;;;;;;;11.01;100.00;99578.69;5103992;28;20015;-65
2022/09/18 02:59:52;;;;;;;2.72;1.55;;;;;;;11.02;99.53;99579.50;5103876;28;20027;-64
2022/09/18 03:02:20;;;;;;;10.82;1.70;;;;;;;11.07;97.94;99587.94;5101837;28;20483;-65
2022/09/18 03:04:45;;;;;;;8.27;1.95;;;;;;;10.93;96.68;99559.81;5103936;28;20144;-65
2022/09/18 03:07:13;;;;;;;5.82;2.13;;;;;;;11.08;96.65;99584.25;5104119;28;20037;-65
2022/09/18 03:09:38;;;;;;;5.35;1.50;;;;;;;10.96;97.06;99575.63;5102650;28;20031;-66
2022/09/18 03:12:04;;;;;;;3.38;1.55;;;;;;;10.94;96.74;99582.97;5103947;27;20046;-66
2022/09/18 03:14:29;;;;;;;5.57;1.48;;;;;;;10.86;97.36;99596.31;5104063;28;20114;-66
2022/09/18 03:16:55;;;;;;;3.38;1.52;;;;;;;10.91;95.42;99585.97;5104028;28;20016;-66
2022/09/18 03:19:20;;;;;;;4.13;1.77;;;;;;;10.88;95.51;99607.75;5104049;28;20023;-66
2022/09/18 03:21:46;;;;;;;3.67;1.50;;;;;;;10.89;95.77;99606.75;5107169;28;20123;-70
2022/09/18 03:24:11;;;;;;;8.07;1.77;;;;;;;10.82;94.85;99608.34;5107523;28;20080;-70
2022/09/18 03:26:37;;;;;;;4.85;1.80;;;;;;;10.83;94.73;99623.44;5107150;28;20051;-68
2022/09/18 03:29:07;;;;;;;3.00;1.63;;;;;;;10.82;94.86;99623.59;5108100;28;20016;-68
2022/09/18 03:31:33;;;;;;;6.63;1.50;;;;;;;10.78;94.24;99628.44;5108096;28;20458;-69
2022/09/18 03:33:58;;;;;;;4.78;1.38;;;;;;;10.71;95.08;99629.19;5107766;28;20032;-69
2022/09/18 03:36:24;;;;;;;3.80;1.40;;;;;;;10.69;94.76;99625.81;5110096;28;20050;-68
2022/09/18 03:38:49;;;;;;;4.78;1.48;;;;;;;10.64;95.31;99628.94;5107345;28;20039;-69
2022/09/18 03:41:14;;;;;;;4.10;1.52;;;;;;;10.70;95.14;99638.22;5108859;28;20034;-69
2022/09/18 03:43:40;;;;;;;7.40;1.83;;;;;;;10.60;95.42;99629.41;5107670;28;20027;-69
2022/09/18 03:46:06;;;;;;;5.75;1.83;;;;;;;10.66;94.96;99637.69;5104977;28;20023;-70
2022/09/18 03:48:31;;;;;;;4.97;1.50;;;;;;;10.65;95.04;99640.53;5106141;28;20110;-70
2022/09/18 03:50:57;;;;;;;4.53;1.50;;;;;;;10.66;94.39;99645.75;5107275;28;20031;-70
2022/09/18 03:53:22;;;;;;;6.00;1.40;;;;;;;10.44;95.48;99632.75;5113739;28;22382;-70
2022/09/18 03:55:49;;;;;;;4.20;1.40;;;;;;;10.52;95.38;99635.53;5113522;28;20024;-70
2022/09/18 03:58:14;;;;;;;5.90;1.60;;;;;;;10.45;96.28;99644.34;5106259;28;20383;-71
2022/09/18 04:00:40;;;;;;;4.55;1.65;;;;;;;10.37;96.95;99642.41;5105805;28;20016;-71
2022/09/18 04:03:06;;;;;;;3.30;1.23;;;;;;;10.35;97.46;99632.81;5105003;28;20039;-66
2022/09/18 04:05:32;;;;;;;5.20;1.35;;;;;;;10.51;94.96;99665.19;5103969;28;20051;-66
2022/09/18 04:07:58;;;;;;;4.15;1.30;;;;;;;10.48;95.41;99660.94;5103441;28;20479;-65
2022/09/18 04:10:25;;;;;;;3.25;1.65;;;;;;;10.47;95.34;99674.50;5101870;28;20100;-66
2022/09/18 04:12:51;;;;;;;4.03;1.45;;;;;;;10.52;94.70;99651.63;5103385;28;20028;-66
2022/09/18 04:15:17;;;;;;;3.35;1.42;;;;;;;10.49;94.07;99665.34;5103285;28;20020;-65
2022/09/18 04:17:43;;;;;;;4.50;1.40;;;;;;;10.55;93.26;99653.16;5104291;28;20031;-64
2022/09/18 04:20:09;;;;;;;4.35;1.30;;;;;;;10.54;92.84;99662.16;5103681;28;20096;-65
2022/09/18 04:22:35;;;;;;;3.10;1.27;;;;;;;10.49;93.47;99667.16;5103649;28;20027;-66
2022/09/18 04:25:01;;;;;;;4.88;1.73;;;;;;;10.38;94.31;99670.06;5103652;28;20031;-66
2022/09/18 04:27:27;;;;;;;7.15;1.50;;;;;;;10.42;94.03;99666.91;5103518;28;20027;-65
2022/09/18 04:29:53;;;;;;;2.97;1.10;;;;;;;10.53;93.16;99669.41;5103498;28;20035;-65
2022/09/18 04:32:18;;;;;;;2.00;1.00;;;;;;;10.40;92.95;99668.91;5103656;28;20042;-66
2022/09/18 04:34:44;;;;;;;2.63;1.55;;;;;;;10.30;93.99;99665.44;5102807;28;20023;-65
2022/09/18 04:37:09;;;;;;;4.55;1.30;;;;;;;10.23;94.54;99672.38;5105502;28;20030;-65
2022/09/18 04:39:35;;;;;;;5.38;1.70;;;;;;;10.24;95.46;99679.44;5107235;28;20020;-66
2022/09/18 04:42:01;;;;;;;5.05;1.35;;;;;;;10.27;94.56;99681.81;5107530;28;20031;-66
2022/09/18 04:44:26;;;;;;;1.30;1.00;;;;;;;10.22;95.30;99688.63;5107308;28;20488;-66
2022/09/18 04:46:52;;;;;;;5.10;1.23;;;;;;;10.29;94.88;99685.16;5107623;28;20041;-65
2022/09/18 04:49:17;;;;;;;2.38;1.15;;;;;;;10.27;94.75;99700.56;5106708;28;20039;-66
2022/09/18 04:51:43;;;;;;;2.33;1.35;;;;;;;10.17;94.99;99693.56;5108484;28;20372;-69
2022/09/18 04:54:09;;;;;;;5.40;1.42;;;;;;;10.21;95.22;99698.47;5104481;28;20024;-69
2022/09/18 04:56:35;;;;;;;2.53;1.33;;;;;;;10.27;94.77;99703.25;5110205;27;20034;-69
2022/09/18 04:59:00;;;;;;;1.85;1.35;;;;;;;10.33;94.17;99704.50;5108483;28;20027;-69
2022/09/18 05:01:26;;;;;;;2.67;1.15;;;;;;;10.17;94.97;99709.63;5108308;28;20031;-69
2022/09/18 05:03:52;;;;;;;2.40;1.30;;;;;;;10.11;96.21;99716.44;5107656;28;20035;-69
2022/09/18 05:06:17;;;;;;;3.42;1.30;;;;;;;10.12;96.63;99723.47;5107722;28;20028;-69
2022/09/18 05:08:42;;;;;;;3.00;1.10;;;;;;;10.19;95.70;99729.91;5107161;27;20028;-65
2022/09/18 05:11:08;;;;;;;2.28;1.00;;;;;;;10.20;95.97;99730.78;5106405;28;20053;-65
2022/09/18 05:13:33;;;;;;;2.67;0.90;;;;;;;10.30;95.14;99720.88;5106921;28;20031;-66
2022/09/18 05:15:59;;;;;;;1.95;1.38;;;;;;;10.38;94.06;99724.50;5106906;28;20043;-65
2022/09/18 05:18:25;;;;;;;2.50;1.08;;;;;;;10.32;95.28;99725.06;5107826;28;20575;-69
2022/09/18 05:20:51;;;;;;;3.22;1.20;;;;;;;10.36;93.80;99721.13;5108807;27;20106;-69
2022/09/18 05:23:16;;;;;;;1.40;0.85;;;;;;;10.49;93.42;99721.63;5108003;28;20075;-69
2022/09/18 05:25:42;;;;;;;2.60;1.15;;;;;;;10.52;92.82;99733.88;5105289;28;20020;-69
2022/09/18 05:28:08;;;;;;;1.98;1.08;;;;;;;10.72;92.32;99746.19;5107929;27;20027;-69
2022/09/18 05:30:34;;;;;;;2.22;1.08;;;;;;;10.63;92.21;99737.22;5107717;27;20038;-69
2022/09/18 05:33:06;;;;;;;2.15;1.10;;;;;;;10.70;91.71;99740.97;5108314;27;20036;-69
2022/09/18 05:35:33;;;;;;;2.78;1.00;;;;;;;10.77;90.74;99742.06;5108898;27;20024;-69
2022/09/18 05:37:59;;;;;;;1.95;1.08;;;;;;;10.66;92.33;99749.47;5107952;28;20062;-68
2022/09/18 05:40:30;;;;;;;1.63;1.35;;;;;;;10.66;93.35;99738.75;5108544;28;20717;-68
2022/09/18 05:42:56;;;;;;;2.95;1.10;;;;;;;10.77;92.60;99752.78;5103128;27;20023;-69
2022/09/18 05:45:22;;;;;;;3.03;0.73;;;;;;;10.84;91.08;99743.16;5096159;28;20036;-69
2022/09/18 05:48:04;;;;;;;3.45;0.80;;;;;;;11.11;88.09;99748.50;5097255;28;20040;-69
2022/09/18 05:50:30;;;;;;;1.60;0.77;;;;;;;11.01;88.17;99728.09;5092197;28;20019;-68
2022/09/18 05:53:07;;;;;;;4.43;1.00;;;;;;;11.18;87.57;99741.53;5091254;27;20122;-68
2022/09/18 05:55:33;;;;;;;5.90;1.00;;;;;;;11.12;88.53;99728.72;5100844;27;20019;-65
2022/09/18 05:58:00;;;;;;;1.15;0.80;;;;;;;11.23;88.59;99733.84;5095282;27;20077;-65
2022/09/18 06:00:27;;;;;;;1.05;0.80;;;;;;;11.29;87.60;99738.59;5095894;28;20523;-65
2022/09/18 06:02:54;;;;;;;1.95;0.80;;;;;;;11.44;85.27;99738.91;5097554;27;20062;-66
2022/09/18 06:05:20;;;;;;;1.40;0.60;;;;;;;11.57;84.54;99742.91;5098264;28;20031;-66
2022/09/18 06:07:45;;;;;;;3.47;0.93;;;;;;;11.60;82.15;99735.53;5086521;28;20062;-65
2022/09/18 06:10:11;;;;;;;1.58;0.75;;;;;;;11.82;81.24;99760.09;5099278;27;20035;-66
2022/09/18 06:12:37;;;;;;;1.48;0.70;;;;;;;11.78;81.28;99747.97;5094826;28;20117;-65
2022/09/18 06:15:02;;;;;;;3.78;0.90;;;;;;;11.94;80.44;99752.63;5094588;28;20035;-64
2022/09/18 06:17:28;;;;;;;7.13;0.82;;;;;;;11.99;80.67;99753.81;5101249;28;20061;-66
2022/09/18 06:19:53;;;;;;;3.50;0.90;;;;;;;12.09;80.51;99769.88;5101391;28;20027;-65
2022/09/18 06:22:19;;;;;;;2.63;0.70;;;;;;;12.15;80.11;99769.25;5104890;27;20045;-65
2022/09/18 06:24:45;;;;;;;2.50;0.60;;;;;;;12.30;78.31;99775.69;5102845;28;20034;-65
2022/09/18 06:27:10;;;;;;;3.15;0.60;;;;;;;12.58;76.69;99785.28;5100537;28;20096;-66
2022/09/18 06:29:35;;;;;;;3.97;0.98;;;;;;;12.77;73.32;99796.63;5102118;28;20033;-66
2022/09/18 06:32:01;;;;;;;2.72;0.93;;;;;;;12.82;73.93;99791.63;5104310;27;20102;-65
2022/09/18 06:34:26;;;;;;;2.78;0.80;;;;;;;12.85;75.35;99788.63;5103201;28;20078;-66
2022/09/18 06:36:52;;;;;;;0.95;0.80;;;;;;;12.97;74.97;99784.59;5102851;28;20028;-65
2022/09/18 06:39:17;;;;;;;2.15;0.80;;;;;;;13.28;72.77;99803.75;5103873;27;20074;-65
2022/09/18 06:41:43;;;;;;;2.45;0.50;;;;;;;13.41;73.21;99798.72;5101905;28;20027;-66
2022/09/18 06:44:08;;;;;;;1.30;0.63;;;;;;;13.56;70.18;99779.09;5102578;27;20046;-65
2022/09/18 06:46:34;;;;;;;2.55;1.15;;;;;;;13.79;68.56;99800.81;5102626;28;20789;-65
2022/09/18 06:48:59;;;;;;;6.60;0.77;;;;;;;13.82;69.38;99794.22;5103071;28;20595;-65
2022/09/18 06:51:25;;;;;;;2.03;0.45;;;;;;;13.92;69.80;99795.75;5101494;28;20027;-64
2022/09/18 06:53:50;;;;;;;2.10;0.43;;;;;;;14.03;68.58;99800.84;5102443;28;20074;-64
2022/09/18 06:56:16;;;;;;;2.65;1.00;;;;;;;14.32;67.78;99811.13;5095826;28;20031;-64
2022/09/18 06:58:41;;;;;;;4.20;0.82;;;;;;;14.47;65.25;99810.25;5100594;28;20088;-64
2022/09/18 07:01:07;;;;;;;1.58;0.80;;;;;;;14.50;64.77;99804.50;5102269;28;20055;-65
2022/09/18 07:03:33;;;;;;;2.35;0.80;;;;;;;14.48;66.77;99806.50;5103216;28;20482;-65
2022/09/18 07:05:58;;;;;;;2.25;0.60;;;;;;;14.75;64.83;99803.44;5103077;28;20036;-66
2022/09/18 07:08:23;;;;;;;1.38;0.50;;;;;;;14.84;63.85;99805.09;5105541;27;20394;-65
2022/09/18 07:10:49;;;;;;;0.95;0.70;;;;;;;14.93;63.30;99812.13;5101042;28;20075;-65
2022/09/18 07:13:14;;;;;;;2.85;0.57;;;;;;;14.97;63.77;99813.47;5103880;28;20023;-65
2022/09/18 07:15:40;;;;;;;1.45;0.60;;;;;;;15.10;63.98;99802.09;5103506;28;20043;-65
2022/09/18 07:18:06;;;;;;;0.75;0.50;;;;;;;15.21;62.16;99805.25;5102617;28;20024;-64
2022/09/18 07:20:32;;;;;;;1.50;0.60;;;;;;;15.27;62.74;99803.69;5102703;27;20093;-65
2022/09/18 07:23:00;;;;;;;5.25;0.50;;;;;;;15.52;61.70;99806.13;5103144;28;20050;-65
2022/09/18 07:25:28;;;;;;;1.40;0.55;;;;;;;15.56;60.70;99804.75;5102396;28;20067;-65
2022/09/18 07:27:53;;;;;;;2.17;0.52;;;;;;;15.61;60.35;99806.91;5100610;28;20094;-64
2022/09/18 07:30:19;;;;;;;1.08;0.60;;;;;;;15.68;60.74;99797.06;5103702;28;20077;-64
2022/09/18 07:32:45;;;;;;;2.85;0.63;;;;;;;16.09;59.17;99816.53;5101142;28;20024;-65
2022/09/18 07:35:11;;;;;;;1.33;0.60;;;;;;;16.13;59.73;99797.03;5103398;28;20043;-65
2022/09/18 07:37:37;;;;;;;1.48;0.60;;;;;;;16.44;56.11;99800.47;5103139;28;20019;-65
2022/09/18 07:40:04;;;;;;;1.63;0.50;;;;;;;16.47;55.82;99800.13;5102375;28;20027;-65
2022/09/18 07:42:30;;;;;;;2.78;0.70;;;;;;;16.56;56.58;99809.00;5100839;28;20026;-65
2022/09/18 07:44:55;;;;;;;0.63;0.45;;;;;;;16.87;56.13;99825.91;5102849;28;20036;-65
2022/09/18 07:47:23;;;;;;;3.58;0.70;;;;;;;17.22;54.36;99819.75;5102310;28;20432;-65
2022/09/18 07:49:48;;;;;;;3.33;0.70;;;;;;;17.80;53.88;99825.88;5101581;28;20024;-65
2022/09/18 07:52:14;;;;;;;2.20;0.63;;;;;;;18.30;50.62;99802.31;5101102;28;20046;-64
2022/09/18 07:54:39;;;;;;;2.17;0.40;;;;;;;18.82;49.75;99806.28;5101674;28;20031;-64
2022/09/18 07:57:05;;;;;;;1.83;0.52;;;;;;;19.61;47.06;99811.06;5102139;28;20038;-64
2022/09/18 07:59:30;;;;;;;0.73;0.35;;;;;;;19.81;46.60;99811.16;5102785;28;20108;-64
2022/09/18 08:01:56;;;;;;;1.17;0.50;;;;;;;19.83;46.50;99804.44;5101579;27;20043;-64
2022/09/18 08:04:22;;;;;;;4.88;0.60;;;;;;;20.36;44.84;99804.53;5103365;28;20034;-64
2022/09/18 08:06:54;;;;;;;2.13;0.63;;;;;;;21.09;41.14;99820.59;5102745;28;20094;-66
2022/09/18 08:09:20;;;;;;;2.50;0.47;;;;;;;21.02;41.80;99803.44;5104363;28;20071;-65
2022/09/18 08:11:46;;;;;;;5.28;0.60;;;;;;;21.62;39.50;99811.16;5103908;27;20482;-65
2022/09/18 08:14:12;;;;;;;5.18;0.63;;;;;;;22.38;38.01;99815.53;5107874;28;20022;-63
2022/09/18 08:16:37;;;;;;;8.70;0.70;;;;;;;22.44;37.58;99811.88;5105548;27;20110;-65
2022/09/18 08:19:03;;;;;;;5.50;0.80;;;;;;;22.95;36.37;99817.13;5106017;28;20031;-64
2022/09/18 08:21:29;;;;;;;3.65;0.82;;;;;;;22.63;36.39;99804.59;5104496;28;20027;-64
2022/09/18 08:23:55;;;;;;;1.08;0.60;;;;;;;22.40;37.21;99804.38;5106723;28;20490;-65
2022/09/18 08:26:20;;;;;;;1.40;0.70;;;;;;;21.53;39.01;99812.44;5107345;27;20029;-65
2022/09/18 08:28:46;;;;;;;1.60;0.60;;;;;;;20.92;39.37;99813.91;5106045;28;20126;-65
2022/09/18 08:31:12;;;;;;;2.20;0.50;;;;;;;20.04;41.33;99830.66;5107374;28;20019;-65
2022/09/18 08:33:37;;;;;;;3.28;0.68;;;;;;;19.51;42.99;99828.84;5107457;28;20398;-65
2022/09/18 08:36:03;;;;;;;6.85;0.90;;;;;;;18.83;44.65;99837.84;5107494;27;20035;-65
2022/09/18 08:38:29;;;;;;;1.13;0.40;;;;;;;18.68;45.02;99834.44;5107545;28;20027;-65
2022/09/18 08:41:22;;;;;;;6.00;0.80;;;;;;;18.35;45.89;99843.31;5107148;28;20023;-65
2022/09/18 08:44:03;;;;;;;2.60;0.60;;;;;;;18.23;46.03;99851.16;5105217;28;20080;-63
2022/09/18 08:46:39;;;;;;;2.42;0.70;;;;;;;18.13;45.68;99848.75;5107622;28;20471;-63
2022/09/18 08:49:23;;;;;;;2.70;0.70;;;;;;;18.05;45.86;99853.47;5104014;28;20031;-64
2022/09/18 08:52:15;;;;;;;3.67;0.50;;;;;;;17.46;47.23;99844.69;5106967;28;21955;-64
2022/09/18 08:54:44;;;;;;;1.83;0.60;;;;;;;17.23;48.48;99856.66;5108282;28;20382;-64
2022/09/18 08:57:27;;;;;;;3.95;0.60;;;;;;;16.96;49.38;99855.44;5112316;28;20058;-63
2022/09/18 09:00:10;;;;;;;2.70;0.70;;;;;;;16.86;49.01;99871.13;5115819;28;20678;-64
2022/09/18 09:03:18;;;;;;;5.60;0.57;;;;;;;16.57;50.05;99854.00;5113934;28;20027;-64
2022/09/18 09:06:46;;;;;;;2.78;0.50;;;;;;;16.71;49.24;99862.16;5110252;28;20042;-64
2022/09/18 09:10:03;;;;;;;5.80;0.75;;;;;;;16.63;50.36;99855.97;5044602;28;20119;-64
2022/09/18 09:13:03;;;;;;;2.92;0.55;;;;;;;16.49;50.72;99840.53;5015239;28;20220;-64
2022/09/18 09:15:49;;;;;;;3.30;0.50;;;;;;;16.67;51.49;99855.41;5106523;28;20031;-65
2022/09/18 09:19:01;;;;;;;4.22;0.50;;;;;;;16.68;51.02;99867.09;5105423;28;20031;-65
2022/09/18 09:22:02;;;;;;;2.45;0.50;;;;;;;16.63;50.06;99864.09;5106457;28;20100;-65
2022/09/18 09:25:12;;;;;;;1.48;0.65;;;;;;;16.65;49.77;99864.75;5082576;28;20525;-64
2022/09/18 09:28:17;;;;;;;5.05;0.60;;;;;;;16.49;49.88;99829.72;5056565;28;20119;-64
2022/09/18 09:30:48;;;;;;;;;;;;;;;16.84;49.34;99869.63;5043888;28;20036;-65
2022/09/18 09:33:38;;;;;;;2.60;0.50;;;;;;;16.58;51.04;99863.81;5044439;28;19916;-65
2022/09/18 09:36:10;;;;;;;3.22;0.55;;;;;;;16.72;49.75;99861.13;5088328;28;20395;-64
2022/09/18 09:38:56;;;;;;;1.27;0.52;;;;;;;16.77;49.56;99858.69;5103971;28;20023;-65
2022/09/18 09:41:37;;;;;;;2.53;0.52;;;;;;;16.74;49.50;99872.63;5104266;28;20486;-64
2022/09/18 09:44:09;;;;;;;5.78;0.73;;;;;;;16.72;49.38;99862.97;5107847;28;20126;-64
2022/09/18 09:47:09;;;;;;;2.83;0.40;;;;;;;16.67;49.31;99884.38;5105621;28;20035;-64
2022/09/18 09:49:46;;;;;;;2.28;0.47;;;;;;;16.58;48.14;99834.03;5106005;28;20027;-64
2022/09/18 09:52:21;;;;;;;3.53;0.60;;;;;;;16.72;47.65;99885.50;5109758;27;20026;-64
2022/09/18 09:54:47;;;;;;;;;;;;;;;16.51;48.64;99868.28;5104028;28;20055;-64
2022/09/18 09:57:30;;;;;;;4.22;0.60;;;;;;;16.60;49.48;99872.59;5107296;27;20075;-64
2022/09/18 10:00:08;;;;;;;2.67;0.50;;;;;;;16.71;48.26;99891.09;5105468;28;20042;-64
2022/09/18 10:02:43;;;;;;;1.65;0.45;;;;;;;16.41;49.65;99871.19;5106227;28;20016;-64
2022/09/18 10:05:28;;;;;;;5.00;0.63;;;;;;;16.48;49.03;99893.00;5105208;28;20045;-64
2022/09/18 10:08:04;;;;;;;1.08;0.55;;;;;;;16.39;49.41;99892.22;5108594;27;20043;-64
2022/09/18 10:10:46;;;;;;;2.78;0.50;;;;;;;16.12;50.76;99900.03;5106188;28;20486;-65
2022/09/18 10:13:25;;;;;;;2.70;0.73;;;;;;;15.96;51.19;99906.38;5106204;27;20577;-64
2022/09/18 10:16:00;;;;;;;2.15;0.60;;;;;;;15.94;52.38;99917.38;5106731;27;20020;-64
2022/09/18 10:18:33;;;;;;;3.95;0.52;;;;;;;16.04;51.44;99898.22;5107718;27;20463;-64
2022/09/18 10:21:23;;;;;;;1.33;0.22;;;;;;;15.93;52.08;99924.84;5105545;28;20493;-65
2022/09/18 10:24:11;;;;;;;0.75;0.30;;;;;;;15.90;51.53;99932.28;5133637;27;20554;-63
2022/09/18 10:26:42;;;;;;;3.53;0.60;;;;;;;15.85;51.54;99925.72;5102860;28;20035;-64
2022/09/18 10:29:09;;;;;;;0.22;0.20;;;;;;;15.72;51.91;99937.13;5108439;27;20027;-63
2022/09/18 10:31:55;;;;;;;0.95;0.57;;;;;;;15.63;52.31;99943.59;5108414;27;20043;-64
2022/09/18 10:34:35;;;;;;;3.33;0.50;;;;;;;15.65;51.68;99941.56;5104224;28;20027;-65
2022/09/18 10:37:02;;;;;;;1.45;0.47;;;;;;;15.57;52.61;99940.72;5102253;28;20035;-64
2022/09/18 10:39:33;;;;;;;3.08;0.60;;;;;;;15.63;52.25;99949.00;5103019;28;20509;-65
2022/09/18 10:42:14;;;;;;;1.52;0.50;;;;;;;15.70;51.93;99941.84;5102827;28;20043;-65
2022/09/18 10:44:42;;;;;;;1.95;0.60;;;;;;;15.93;52.16;99947.34;5103459;28;20114;-66
2022/09/18 10:47:25;;;;;;;3.63;0.50;;;;;;;15.76;52.55;99941.16;5103551;28;20044;-65
2022/09/18 10:50:06;;;;;;;2.70;0.73;;;;;;;15.79;51.88;99953.47;5101694;28;20102;-65
2022/09/18 10:52:43;;;;;;;4.32;0.75;;;;;;;15.86;51.07;99951.75;5102590;28;20054;-64
2022/09/18 10:55:11;;;;;;;2.08;0.50;;;;;;;15.87;51.85;99959.69;5103791;27;20019;-65
2022/09/18 10:58:00;;;;;;;1.38;0.50;;;;;;;15.85;52.56;99961.75;5104871;27;20035;-65
2022/09/18 11:00:28;;;;;;;2.28;0.60;;;;;;;15.99;51.31;99954.72;5101334;28;20055;-65
2022/09/18 11:03:14;;;;;;;1.13;0.55;;;;;;;15.94;51.95;99966.06;5102344;28;20413;-64
2022/09/18 11:05:50;;;;;;;4.80;0.68;;;;;;;15.77;52.40;99961.75;5103454;28;20050;-65
2022/09/18 11:08:19;;;;;;;4.97;0.70;;;;;;;16.05;51.46;99972.13;5103670;28;20493;-65
2022/09/18 11:10:54;;;;;;;1.85;0.57;;;;;;;16.08;51.50;99958.22;5102618;28;21030;-65
2022/09/18 11:13:27;;;;;;;1.23;0.38;;;;;;;15.93;51.61;99958.16;5102286;28;20038;-65
2022/09/18 11:15:56;;;;;;;3.13;0.55;;;;;;;15.97;52.38;99964.03;5102538;28;20071;-65
2022/09/18 11:18:24;;;;;;;2.67;0.50;;;;;;;15.84;52.53;99943.81;5104459;28;20366;-64
2022/09/18 11:20:51;;;;;;;4.40;0.63;;;;;;;15.96;53.22;99956.94;5101046;28;20046;-65
2022/09/18 11:23:34;;;;;;;0.82;0.40;;;;;;;15.72;53.64;99960.59;5102967;28;20488;-65
2022/09/18 11:26:29;;;;;;;5.68;0.95;;;;;;;15.96;53.04;99965.88;5101794;28;20024;-65
2022/09/18 11:28:59;;;;;;;;;;;;;;;16.09;51.87;99966.16;5103591;28;20730;-65
2022/09/18 11:31:33;;;;;;;3.65;0.50;;;;;;;16.18;50.29;99956.97;5101986;28;19916;-64
2022/09/18 11:33:59;;;;;;;2.08;0.60;;;;;;;16.25;51.54;99976.88;5099612;28;20044;-65
2022/09/18 11:36:31;;;;;;;3.28;0.70;;;;;;;16.34;50.55;99972.28;5103098;28;20027;-64
2022/09/18 11:38:59;;;;;;;0.90;0.50;;;;;;;16.19;51.25;99955.13;5102495;28;20813;-65
2022/09/18 11:41:31;;;;;;;3.28;0.40;;;;;;;16.10;51.83;99959.72;5102288;28;20028;-65
2022/09/18 11:44:27;;;;;;;2.03;0.60;;;;;;;16.27;51.51;99963.16;5103912;28;20506;-66
2022/09/18 11:47:03;;;;;;;3.67;0.90;;;;;;;16.39;50.94;99959.88;5090055;28;20043;-66
2022/09/18 11:49:43;;;;;;;3.30;0.43;;;;;;;16.29;51.06;99958.41;5105596;28;20038;-65
2022/09/18 11:52:37;;;;;;;3.42;0.38;;;;;;;16.40;50.75;99975.09;5104370;28;20023;-63
2022/09/18 11:55:22;;;;;;;1.38;0.50;;;;;;;16.37;50.85;99961.06;5106039;28;20024;-64